sensor_id;sensor_type;location;lat;lon;timestamp;temperature;humidity
16666;DHT22;8446;50.998;6.250;2022-10-03T00:01:21;8.60;99.90
16666;DHT22;8446;50.998;6.250;2022-10-03T00:03:58;8.70;99.90
16666;DHT22;8446;50.998;6.250;2022-10-03T00:06:35;8.70;99.90
16666;DHT22;8446;50.998;6.250;2022-10-03T00:09:16;8.70;99.90
16666;DHT22;8446;50.998;6.250;2022-10-03T00:11:56;8.70;99.90
16666;DHT22;8446;50.998;6.250;2022-10-03T00:14:33;8.70;99.90
16666;DHT22;8446;50.998;6.250;2022-10-03T00:17:07;8.60;99.90
16666;DHT22;8446;50.998;6.250;2022-10-03T00:19:41;8.60;99.90
16666;DHT22;8446;50.998;6.250;2022-10-03T00:22:20;8.60;99.90
16666;DHT22;8446;50.998;6.250;2022-10-03T00:25:02;8.60;99.90
16666;DHT22;8446;50.998;6.250;2022-10-03T00:27:36;8.70;99.90
16666;DHT22;8446;50.998;6.250;2022-10-03T00:30:14;8.80;99.90
16666;DHT22;8446;50.998;6.250;2022-10-03T00:32:54;8.90;99.90
16666;DHT22;8446;50.998;6.250;2022-10-03T00:35:40;8.70;99.90
16666;DHT22;8446;50.998;6.250;2022-10-03T00:38:26;8.80;99.90
16666;DHT22;8446;50.998;6.250;2022-10-03T00:41:11;8.80;99.90
16666;DHT22;8446;50.998;6.250;2022-10-03T00:44:20;8.80;99.90
16666;DHT22;8446;50.998;6.250;2022-10-03T00:47:01;8.80;99.90
16666;DHT22;8446;50.998;6.250;2022-10-03T00:52:56;8.80;99.90
16666;DHT22;8446;50.998;6.250;2022-10-03T00:55:38;8.80;99.90
16666;DHT22;8446;50.998;6.250;2022-10-03T00:58:19;8.70;99.90
16666;DHT22;8446;50.998;6.250;2022-10-03T01:00:57;8.70;99.90
16666;DHT22;8446;50.998;6.250;2022-10-03T01:03:40;8.70;99.90
16666;DHT22;8446;50.998;6.250;2022-10-03T01:06:22;8.70;99.90
16666;DHT22;8446;50.998;6.250;2022-10-03T01:09:12;8.70;99.90
16666;DHT22;8446;50.998;6.250;2022-10-03T01:11:56;8.80;99.90
16666;DHT22;8446;50.998;6.250;2022-10-03T01:14:40;8.80;99.90
16666;DHT22;8446;50.998;6.250;2022-10-03T01:17:17;8.90;99.90
16666;DHT22;8446;50.998;6.250;2022-10-03T01:20:08;8.90;99.90
16666;DHT22;8446;50.998;6.250;2022-10-03T01:22:56;8.90;99.90
16666;DHT22;8446;50.998;6.250;2022-10-03T01:25:37;8.90;99.90
16666;DHT22;8446;50.998;6.250;2022-10-03T01:28:20;8.90;99.90
16666;DHT22;8446;50.998;6.250;2022-10-03T01:31:14;8.90;99.90
16666;DHT22;8446;50.998;6.250;2022-10-03T01:33:47;8.90;99.90
16666;DHT22;8446;50.998;6.250;2022-10-03T01:36:27;8.80;99.90
16666;DHT22;8446;50.998;6.250;2022-10-03T01:39:00;8.80;99.90
16666;DHT22;8446;50.998;6.250;2022-10-03T01:41:36;8.70;99.90
16666;DHT22;8446;50.998;6.250;2022-10-03T01:44:15;8.70;99.90
16666;DHT22;8446;50.998;6.250;2022-10-03T01:46:51;8.60;99.90
16666;DHT22;8446;50.998;6.250;2022-10-03T01:49:25;8.50;99.90
16666;DHT22;8446;50.998;6.250;2022-10-03T01:51:58;8.30;99.90
16666;DHT22;8446;50.998;6.250;2022-10-03T01:54:35;8.20;99.90
16666;DHT22;8446;50.998;6.250;2022-10-03T01:57:12;8.20;99.90
16666;DHT22;8446;50.998;6.250;2022-10-03T01:59:46;8.20;99.90
16666;DHT22;8446;50.998;6.250;2022-10-03T02:02:23;8.20;99.90
16666;DHT22;8446;50.998;6.250;2022-10-03T02:04:58;8.20;99.90
16666;DHT22;8446;50.998;6.250;2022-10-03T02:07:34;8.30;99.90
16666;DHT22;8446;50.998;6.250;2022-10-03T02:10:09;8.30;99.90
16666;DHT22;8446;50.998;6.250;2022-10-03T02:12:39;8.20;99.90
16666;DHT22;8446;50.998;6.250;2022-10-03T02:15:16;8.30;99.90
16666;DHT22;8446;50.998;6.250;2022-10-03T02:17:50;8.10;99.90
16666;DHT22;8446;50.998;6.250;2022-10-03T02:20:23;8.00;99.90
16666;DHT22;8446;50.998;6.250;2022-10-03T02:22:55;7.40;99.90
16666;DHT22;8446;50.998;6.250;2022-10-03T02:25:35;7.30;99.90
16666;DHT22;8446;50.998;6.250;2022-10-03T02:28:18;7.10;99.90
16666;DHT22;8446;50.998;6.250;2022-10-03T02:34:24;7.10;99.90
16666;DHT22;8446;50.998;6.250;2022-10-03T02:37:14;7.10;99.90
16666;DHT22;8446;50.998;6.250;2022-10-03T02:49:45;7.00;99.90
16666;DHT22;8446;50.998;6.250;2022-10-03T03:04:53;7.10;99.90
16666;DHT22;8446;50.998;6.250;2022-10-03T03:07:38;7.00;99.90
16666;DHT22;8446;50.998;6.250;2022-10-03T03:10:30;7.20;99.90
16666;DHT22;8446;50.998;6.250;2022-10-03T03:13:42;7.20;99.90
16666;DHT22;8446;50.998;6.250;2022-10-03T03:16:45;7.50;99.90
16666;DHT22;8446;50.998;6.250;2022-10-03T03:22:22;7.10;99.90
16666;DHT22;8446;50.998;6.250;2022-10-03T03:25:03;6.90;99.90
16666;DHT22;8446;50.998;6.250;2022-10-03T03:27:41;6.90;99.90
16666;DHT22;8446;50.998;6.250;2022-10-03T03:30:13;6.90;99.90
16666;DHT22;8446;50.998;6.250;2022-10-03T03:32:59;6.70;99.90
16666;DHT22;8446;50.998;6.250;2022-10-03T03:35:38;6.90;99.90
16666;DHT22;8446;50.998;6.250;2022-10-03T03:38:23;6.90;99.90
16666;DHT22;8446;50.998;6.250;2022-10-03T03:41:02;7.00;99.90
16666;DHT22;8446;50.998;6.250;2022-10-03T03:43:46;7.10;99.90
16666;DHT22;8446;50.998;6.250;2022-10-03T03:46:23;7.10;99.90
16666;DHT22;8446;50.998;6.250;2022-10-03T03:49:11;7.10;99.90
16666;DHT22;8446;50.998;6.250;2022-10-03T03:51:45;7.10;99.90
16666;DHT22;8446;50.998;6.250;2022-10-03T03:54:48;7.00;99.90
16666;DHT22;8446;50.998;6.250;2022-10-03T03:57:34;7.10;99.90
16666;DHT22;8446;50.998;6.250;2022-10-03T04:00:13;7.10;99.90
16666;DHT22;8446;50.998;6.250;2022-10-03T04:02:56;7.00;99.90
16666;DHT22;8446;50.998;6.250;2022-10-03T04:05:38;7.00;99.90
16666;DHT22;8446;50.998;6.250;2022-10-03T04:08:19;7.10;99.90
16666;DHT22;8446;50.998;6.250;2022-10-03T04:11:00;7.10;99.90
16666;DHT22;8446;50.998;6.250;2022-10-03T04:13:55;7.20;99.90
16666;DHT22;8446;50.998;6.250;2022-10-03T04:16:41;7.10;99.90
16666;DHT22;8446;50.998;6.250;2022-10-03T04:19:32;7.20;99.90
16666;DHT22;8446;50.998;6.250;2022-10-03T04:22:21;7.20;99.90
16666;DHT22;8446;50.998;6.250;2022-10-03T04:25:11;7.20;99.90
16666;DHT22;8446;50.998;6.250;2022-10-03T04:28:05;7.30;99.90
16666;DHT22;8446;50.998;6.250;2022-10-03T04:30:44;7.40;99.90
16666;DHT22;8446;50.998;6.250;2022-10-03T04:33:24;7.30;99.90
16666;DHT22;8446;50.998;6.250;2022-10-03T04:36:22;7.30;99.90
16666;DHT22;8446;50.998;6.250;2022-10-03T04:39:04;7.20;99.90
16666;DHT22;8446;50.998;6.250;2022-10-03T04:41:39;7.10;99.90
16666;DHT22;8446;50.998;6.250;2022-10-03T04:44:17;7.10;99.90
16666;DHT22;8446;50.998;6.250;2022-10-03T04:46:50;7.20;99.90
16666;DHT22;8446;50.998;6.250;2022-10-03T04:49:26;7.20;99.90
16666;DHT22;8446;50.998;6.250;2022-10-03T04:51:59;7.10;99.90
16666;DHT22;8446;50.998;6.250;2022-10-03T04:54:35;7.40;99.90
16666;DHT22;8446;50.998;6.250;2022-10-03T04:57:18;7.40;99.90
16666;DHT22;8446;50.998;6.250;2022-10-03T04:59:51;7.60;99.90
16666;DHT22;8446;50.998;6.250;2022-10-03T05:02:43;7.60;99.90
16666;DHT22;8446;50.998;6.250;2022-10-03T05:05:20;7.60;99.90
16666;DHT22;8446;50.998;6.250;2022-10-03T05:07:54;7.60;99.90
16666;DHT22;8446;50.998;6.250;2022-10-03T05:10:41;7.80;99.90
16666;DHT22;8446;50.998;6.250;2022-10-03T05:13:14;7.90;99.90
16666;DHT22;8446;50.998;6.250;2022-10-03T05:15:51;7.90;99.90
16666;DHT22;8446;50.998;6.250;2022-10-03T05:18:23;7.90;99.90
16666;DHT22;8446;50.998;6.250;2022-10-03T05:20:58;7.80;99.90
16666;DHT22;8446;50.998;6.250;2022-10-03T05:23:38;7.60;99.90
16666;DHT22;8446;50.998;6.250;2022-10-03T05:26:16;7.40;99.90
16666;DHT22;8446;50.998;6.250;2022-10-03T05:28:49;7.30;99.90
16666;DHT22;8446;50.998;6.250;2022-10-03T05:31:30;7.10;99.90
16666;DHT22;8446;50.998;6.250;2022-10-03T05:34:05;7.10;99.90
16666;DHT22;8446;50.998;6.250;2022-10-03T05:36:57;7.10;99.90
16666;DHT22;8446;50.998;6.250;2022-10-03T05:39:36;7.10;99.90
16666;DHT22;8446;50.998;6.250;2022-10-03T05:42:19;7.10;99.90
16666;DHT22;8446;50.998;6.250;2022-10-03T05:45:00;7.10;99.90
16666;DHT22;8446;50.998;6.250;2022-10-03T05:47:31;6.90;99.90
16666;DHT22;8446;50.998;6.250;2022-10-03T05:50:41;6.90;99.90
16666;DHT22;8446;50.998;6.250;2022-10-03T05:53:47;6.80;99.90
16666;DHT22;8446;50.998;6.250;2022-10-03T05:56:26;6.70;99.90
16666;DHT22;8446;50.998;6.250;2022-10-03T05:59:21;6.80;99.90
16666;DHT22;8446;50.998;6.250;2022-10-03T06:02:24;6.80;99.90
16666;DHT22;8446;50.998;6.250;2022-10-03T06:05:12;6.90;99.90
16666;DHT22;8446;50.998;6.250;2022-10-03T06:07:52;7.00;99.90
16666;DHT22;8446;50.998;6.250;2022-10-03T06:10:44;7.00;99.90
16666;DHT22;8446;50.998;6.250;2022-10-03T06:13:41;7.00;99.90
16666;DHT22;8446;50.998;6.250;2022-10-03T06:16:26;7.10;99.90
16666;DHT22;8446;50.998;6.250;2022-10-03T06:19:06;7.30;99.90
16666;DHT22;8446;50.998;6.250;2022-10-03T06:25:11;7.70;99.90
16666;DHT22;8446;50.998;6.250;2022-10-03T06:28:26;7.80;99.90
16666;DHT22;8446;50.998;6.250;2022-10-03T06:31:12;7.90;99.90
16666;DHT22;8446;50.998;6.250;2022-10-03T06:34:19;7.70;99.90
16666;DHT22;8446;50.998;6.250;2022-10-03T06:37:11;7.70;99.90
16666;DHT22;8446;50.998;6.250;2022-10-03T06:40:15;8.00;99.90
16666;DHT22;8446;50.998;6.250;2022-10-03T06:52:28;8.80;99.90
16666;DHT22;8446;50.998;6.250;2022-10-03T06:55:24;8.90;99.90
16666;DHT22;8446;50.998;6.250;2022-10-03T07:01:04;9.10;99.90
16666;DHT22;8446;50.998;6.250;2022-10-03T07:04:02;9.20;99.90
16666;DHT22;8446;50.998;6.250;2022-10-03T07:06:46;9.50;99.90
16666;DHT22;8446;50.998;6.250;2022-10-03T07:09:57;9.90;99.90
16666;DHT22;8446;50.998;6.250;2022-10-03T07:15:54;9.90;99.90
16666;DHT22;8446;50.998;6.250;2022-10-03T07:18:44;9.90;99.90
16666;DHT22;8446;50.998;6.250;2022-10-03T07:21:42;9.90;99.90
16666;DHT22;8446;50.998;6.250;2022-10-03T07:24:34;10.20;99.90
16666;DHT22;8446;50.998;6.250;2022-10-03T07:27:15;10.30;99.90
16666;DHT22;8446;50.998;6.250;2022-10-03T07:30:02;10.40;99.90
16666;DHT22;8446;50.998;6.250;2022-10-03T07:35:49;10.60;99.90
16666;DHT22;8446;50.998;6.250;2022-10-03T07:39:04;11.00;99.90
16666;DHT22;8446;50.998;6.250;2022-10-03T07:41:51;11.10;99.90
16666;DHT22;8446;50.998;6.250;2022-10-03T07:48:00;11.20;99.90
16666;DHT22;8446;50.998;6.250;2022-10-03T07:51:01;11.20;99.90
16666;DHT22;8446;50.998;6.250;2022-10-03T07:56:54;11.50;99.90
16666;DHT22;8446;50.998;6.250;2022-10-03T07:59:47;11.60;99.90
16666;DHT22;8446;50.998;6.250;2022-10-03T08:02:39;11.60;99.90
16666;DHT22;8446;50.998;6.250;2022-10-03T08:05:20;11.70;99.90
16666;DHT22;8446;50.998;6.250;2022-10-03T08:08:09;11.70;99.90
16666;DHT22;8446;50.998;6.250;2022-10-03T08:11:01;11.80;99.90
16666;DHT22;8446;50.998;6.250;2022-10-03T08:13:41;11.90;99.90
16666;DHT22;8446;50.998;6.250;2022-10-03T08:16:27;11.90;99.90
16666;DHT22;8446;50.998;6.250;2022-10-03T08:19:11;12.00;99.90
16666;DHT22;8446;50.998;6.250;2022-10-03T08:21:53;12.10;99.90
16666;DHT22;8446;50.998;6.250;2022-10-03T08:24:53;12.50;99.90
16666;DHT22;8446;50.998;6.250;2022-10-03T08:27:40;12.50;99.90
16666;DHT22;8446;50.998;6.250;2022-10-03T08:30:19;12.70;99.90
16666;DHT22;8446;50.998;6.250;2022-10-03T08:33:17;12.80;99.90
16666;DHT22;8446;50.998;6.250;2022-10-03T08:38:53;13.10;99.90
16666;DHT22;8446;50.998;6.250;2022-10-03T08:50:55;13.60;99.90
16666;DHT22;8446;50.998;6.250;2022-10-03T08:56:54;13.20;99.90
16666;DHT22;8446;50.998;6.250;2022-10-03T08:59:58;13.60;99.90
16666;DHT22;8446;50.998;6.250;2022-10-03T09:08:47;13.80;99.90
16666;DHT22;8446;50.998;6.250;2022-10-03T09:18:07;14.40;99.90
16666;DHT22;8446;50.998;6.250;2022-10-03T09:27:13;14.10;99.90
16666;DHT22;8446;50.998;6.250;2022-10-03T09:30:13;14.10;99.90
16666;DHT22;8446;50.998;6.250;2022-10-03T09:35:57;14.60;99.90
16666;DHT22;8446;50.998;6.250;2022-10-03T09:38:55;14.70;99.90
16666;DHT22;8446;50.998;6.250;2022-10-03T09:42:11;14.60;99.90
16666;DHT22;8446;50.998;6.250;2022-10-03T09:44:58;14.70;99.90
16666;DHT22;8446;50.998;6.250;2022-10-03T09:47:55;14.70;99.90
16666;DHT22;8446;50.998;6.250;2022-10-03T09:51:06;14.80;99.90
16666;DHT22;8446;50.998;6.250;2022-10-03T09:57:01;14.70;99.90
16666;DHT22;8446;50.998;6.250;2022-10-03T10:18:07;15.60;99.90
16666;DHT22;8446;50.998;6.250;2022-10-03T10:24:02;15.90;99.90
16666;DHT22;8446;50.998;6.250;2022-10-03T10:27:17;15.70;99.90
16666;DHT22;8446;50.998;6.250;2022-10-03T10:30:12;15.60;99.90
16666;DHT22;8446;50.998;6.250;2022-10-03T10:33:23;15.80;99.90
16666;DHT22;8446;50.998;6.250;2022-10-03T10:36:23;15.80;99.90
16666;DHT22;8446;50.998;6.250;2022-10-03T10:42:46;15.80;99.90
16666;DHT22;8446;50.998;6.250;2022-10-03T10:45:37;15.80;99.90
16666;DHT22;8446;50.998;6.250;2022-10-03T10:48:56;16.10;99.90
16666;DHT22;8446;50.998;6.250;2022-10-03T10:55:24;16.40;99.90
16666;DHT22;8446;50.998;6.250;2022-10-03T10:58:39;16.00;99.90
16666;DHT22;8446;50.998;6.250;2022-10-03T11:02:13;15.80;99.90
16666;DHT22;8446;50.998;6.250;2022-10-03T11:11:40;15.00;99.90
16666;DHT22;8446;50.998;6.250;2022-10-03T11:17:52;14.80;99.90
16666;DHT22;8446;50.998;6.250;2022-10-03T11:24:15;16.10;99.90
16666;DHT22;8446;50.998;6.250;2022-10-03T11:27:31;16.50;99.90
16666;DHT22;8446;50.998;6.250;2022-10-03T11:30:13;16.10;99.90
16666;DHT22;8446;50.998;6.250;2022-10-03T11:33:22;16.40;99.90
16666;DHT22;8446;50.998;6.250;2022-10-03T11:36:09;16.50;99.90
16666;DHT22;8446;50.998;6.250;2022-10-03T11:38:45;16.70;99.90
16666;DHT22;8446;50.998;6.250;2022-10-03T11:41:25;16.60;99.90
16666;DHT22;8446;50.998;6.250;2022-10-03T11:44:21;16.80;99.90
16666;DHT22;8446;50.998;6.250;2022-10-03T11:47:15;16.90;99.90
16666;DHT22;8446;50.998;6.250;2022-10-03T11:52:58;16.30;99.90
16666;DHT22;8446;50.998;6.250;2022-10-03T11:55:32;16.20;99.90
16666;DHT22;8446;50.998;6.250;2022-10-03T11:58:18;16.40;99.90
16666;DHT22;8446;50.998;6.250;2022-10-03T12:00:55;16.40;99.90
16666;DHT22;8446;50.998;6.250;2022-10-03T12:03:26;16.40;99.90
16666;DHT22;8446;50.998;6.250;2022-10-03T12:05:58;16.10;99.90
16666;DHT22;8446;50.998;6.250;2022-10-03T12:08:54;16.60;99.90
16666;DHT22;8446;50.998;6.250;2022-10-03T12:11:28;16.80;99.90
16666;DHT22;8446;50.998;6.250;2022-10-03T12:14:10;16.40;99.90
16666;DHT22;8446;50.998;6.250;2022-10-03T12:16:54;16.70;99.90
16666;DHT22;8446;50.998;6.250;2022-10-03T12:19:28;17.00;99.90
16666;DHT22;8446;50.998;6.250;2022-10-03T12:22:04;17.00;99.90
16666;DHT22;8446;50.998;6.250;2022-10-03T12:24:35;17.20;99.90
16666;DHT22;8446;50.998;6.250;2022-10-03T12:27:14;16.90;99.90
16666;DHT22;8446;50.998;6.250;2022-10-03T12:29:50;17.00;99.90
16666;DHT22;8446;50.998;6.250;2022-10-03T12:32:26;17.00;99.90
16666;DHT22;8446;50.998;6.250;2022-10-03T12:35:02;17.30;99.90
16666;DHT22;8446;50.998;6.250;2022-10-03T12:37:43;17.40;99.90
16666;DHT22;8446;50.998;6.250;2022-10-03T12:40:16;17.50;99.90
16666;DHT22;8446;50.998;6.250;2022-10-03T12:43:00;17.30;99.90
16666;DHT22;8446;50.998;6.250;2022-10-03T12:45:33;17.10;99.90
16666;DHT22;8446;50.998;6.250;2022-10-03T12:48:17;17.30;99.90
16666;DHT22;8446;50.998;6.250;2022-10-03T12:50:53;17.30;99.90
16666;DHT22;8446;50.998;6.250;2022-10-03T12:53:31;17.20;99.90
16666;DHT22;8446;50.998;6.250;2022-10-03T12:56:16;17.20;99.90
16666;DHT22;8446;50.998;6.250;2022-10-03T12:59:12;16.80;99.90
16666;DHT22;8446;50.998;6.250;2022-10-03T13:04:40;16.80;99.90
16666;DHT22;8446;50.998;6.250;2022-10-03T13:07:19;16.90;99.90
16666;DHT22;8446;50.998;6.250;2022-10-03T13:10:05;17.20;99.90
16666;DHT22;8446;50.998;6.250;2022-10-03T13:12:39;17.00;99.90
16666;DHT22;8446;50.998;6.250;2022-10-03T13:15:41;17.20;99.90
16666;DHT22;8446;50.998;6.250;2022-10-03T13:21:13;16.90;99.90
16666;DHT22;8446;50.998;6.250;2022-10-03T13:23:44;17.10;99.90
16666;DHT22;8446;50.998;6.250;2022-10-03T13:26:19;17.20;99.90
16666;DHT22;8446;50.998;6.250;2022-10-03T13:29:07;17.10;99.90
16666;DHT22;8446;50.998;6.250;2022-10-03T13:31:52;16.90;99.90
16666;DHT22;8446;50.998;6.250;2022-10-03T13:34:23;16.80;99.90
16666;DHT22;8446;50.998;6.250;2022-10-03T13:36:55;16.70;99.90
16666;DHT22;8446;50.998;6.250;2022-10-03T13:39:27;16.80;99.90
16666;DHT22;8446;50.998;6.250;2022-10-03T13:42:10;17.10;99.90
16666;DHT22;8446;50.998;6.250;2022-10-03T13:44:40;17.00;99.90
16666;DHT22;8446;50.998;6.250;2022-10-03T13:47:22;17.20;99.90
16666;DHT22;8446;50.998;6.250;2022-10-03T13:49:52;17.10;99.90
16666;DHT22;8446;50.998;6.250;2022-10-03T13:52:27;17.00;99.90
16666;DHT22;8446;50.998;6.250;2022-10-03T13:55:14;17.20;99.90
16666;DHT22;8446;50.998;6.250;2022-10-03T13:57:49;17.30;99.90
16666;DHT22;8446;50.998;6.250;2022-10-03T14:00:20;17.20;99.90
16666;DHT22;8446;50.998;6.250;2022-10-03T14:03:09;17.40;99.90
16666;DHT22;8446;50.998;6.250;2022-10-03T14:08:50;17.10;99.90
16666;DHT22;8446;50.998;6.250;2022-10-03T14:11:26;17.20;99.90
16666;DHT22;8446;50.998;6.250;2022-10-03T14:14:29;17.30;99.90
16666;DHT22;8446;50.998;6.250;2022-10-03T14:17:04;17.40;99.90
16666;DHT22;8446;50.998;6.250;2022-10-03T14:19:40;17.30;99.90
16666;DHT22;8446;50.998;6.250;2022-10-03T14:22:18;17.30;99.90
16666;DHT22;8446;50.998;6.250;2022-10-03T14:24:57;17.40;99.90
16666;DHT22;8446;50.998;6.250;2022-10-03T14:27:41;17.60;99.90
16666;DHT22;8446;50.998;6.250;2022-10-03T14:30:13;17.40;99.90
16666;DHT22;8446;50.998;6.250;2022-10-03T14:35:41;17.60;99.90
16666;DHT22;8446;50.998;6.250;2022-10-03T14:38:22;17.90;99.90
16666;DHT22;8446;50.998;6.250;2022-10-03T14:41:17;17.20;99.90
16666;DHT22;8446;50.998;6.250;2022-10-03T14:43:49;16.70;99.90
16666;DHT22;8446;50.998;6.250;2022-10-03T14:46:22;16.60;99.90
16666;DHT22;8446;50.998;6.250;2022-10-03T14:48:51;16.50;99.90
16666;DHT22;8446;50.998;6.250;2022-10-03T14:51:25;16.90;99.90
16666;DHT22;8446;50.998;6.250;2022-10-03T14:53:56;16.60;99.90
16666;DHT22;8446;50.998;6.250;2022-10-03T14:56:28;16.80;99.90
16666;DHT22;8446;50.998;6.250;2022-10-03T14:58:58;17.10;99.90
16666;DHT22;8446;50.998;6.250;2022-10-03T15:01:28;16.80;99.90
16666;DHT22;8446;50.998;6.250;2022-10-03T15:03:59;16.50;99.90
16666;DHT22;8446;50.998;6.250;2022-10-03T15:06:35;16.80;99.90
16666;DHT22;8446;50.998;6.250;2022-10-03T15:09:16;16.50;99.90
16666;DHT22;8446;50.998;6.250;2022-10-03T15:11:46;16.30;99.90
16666;DHT22;8446;50.998;6.250;2022-10-03T15:14:14;16.40;99.90
16666;DHT22;8446;50.998;6.250;2022-10-03T15:16:48;16.40;99.90
16666;DHT22;8446;50.998;6.250;2022-10-03T15:19:18;16.30;99.90
16666;DHT22;8446;50.998;6.250;2022-10-03T15:21:50;16.40;99.90
16666;DHT22;8446;50.998;6.250;2022-10-03T15:24:20;16.30;99.90
16666;DHT22;8446;50.998;6.250;2022-10-03T15:26:50;16.10;99.90
16666;DHT22;8446;50.998;6.250;2022-10-03T15:29:22;16.20;99.90
16666;DHT22;8446;50.998;6.250;2022-10-03T15:31:52;16.30;99.90
16666;DHT22;8446;50.998;6.250;2022-10-03T15:34:23;16.10;99.90
16666;DHT22;8446;50.998;6.250;2022-10-03T15:36:54;16.10;99.90
16666;DHT22;8446;50.998;6.250;2022-10-03T15:39:25;16.10;99.90
16666;DHT22;8446;50.998;6.250;2022-10-03T15:41:54;15.70;99.90
16666;DHT22;8446;50.998;6.250;2022-10-03T15:44:30;15.80;99.90
16666;DHT22;8446;50.998;6.250;2022-10-03T15:47:07;15.80;99.90
16666;DHT22;8446;50.998;6.250;2022-10-03T15:49:38;15.60;99.90
16666;DHT22;8446;50.998;6.250;2022-10-03T15:52:13;15.90;99.90
16666;DHT22;8446;50.998;6.250;2022-10-03T15:54:45;15.70;99.90
16666;DHT22;8446;50.998;6.250;2022-10-03T15:57:17;15.60;99.90
16666;DHT22;8446;50.998;6.250;2022-10-03T15:59:49;15.50;99.90
16666;DHT22;8446;50.998;6.250;2022-10-03T16:02:22;15.30;99.90
16666;DHT22;8446;50.998;6.250;2022-10-03T16:04:53;15.10;99.90
16666;DHT22;8446;50.998;6.250;2022-10-03T16:07:27;15.20;99.90
16666;DHT22;8446;50.998;6.250;2022-10-03T16:10:07;15.20;99.90
16666;DHT22;8446;50.998;6.250;2022-10-03T16:12:56;15.30;99.90
16666;DHT22;8446;50.998;6.250;2022-10-03T16:15:29;15.30;99.90
16666;DHT22;8446;50.998;6.250;2022-10-03T16:18:04;15.50;99.90
16666;DHT22;8446;50.998;6.250;2022-10-03T16:20:36;15.40;99.90
16666;DHT22;8446;50.998;6.250;2022-10-03T16:23:12;15.40;99.90
16666;DHT22;8446;50.998;6.250;2022-10-03T16:25:45;15.20;99.90
16666;DHT22;8446;50.998;6.250;2022-10-03T16:28:16;15.20;99.90
16666;DHT22;8446;50.998;6.250;2022-10-03T16:30:51;15.00;99.90
16666;DHT22;8446;50.998;6.250;2022-10-03T16:33:24;15.00;99.90
16666;DHT22;8446;50.998;6.250;2022-10-03T16:35:54;14.80;99.90
16666;DHT22;8446;50.998;6.250;2022-10-03T16:38:25;14.90;99.90
16666;DHT22;8446;50.998;6.250;2022-10-03T16:40:57;14.90;99.90
16666;DHT22;8446;50.998;6.250;2022-10-03T16:43:29;15.00;99.90
16666;DHT22;8446;50.998;6.250;2022-10-03T16:45:58;14.80;99.90
16666;DHT22;8446;50.998;6.250;2022-10-03T16:48:29;14.80;99.90
16666;DHT22;8446;50.998;6.250;2022-10-03T16:51:18;14.70;99.90
16666;DHT22;8446;50.998;6.250;2022-10-03T16:53:48;14.80;99.90
16666;DHT22;8446;50.998;6.250;2022-10-03T16:56:17;14.60;99.90
16666;DHT22;8446;50.998;6.250;2022-10-03T16:58:49;14.70;99.90
16666;DHT22;8446;50.998;6.250;2022-10-03T17:01:26;14.40;99.90
16666;DHT22;8446;50.998;6.250;2022-10-03T17:03:59;14.50;99.90
16666;DHT22;8446;50.998;6.250;2022-10-03T17:06:29;14.30;99.90
16666;DHT22;8446;50.998;6.250;2022-10-03T17:09:01;14.30;99.90
16666;DHT22;8446;50.998;6.250;2022-10-03T17:11:31;14.20;99.90
16666;DHT22;8446;50.998;6.250;2022-10-03T17:14:02;14.00;99.90
16666;DHT22;8446;50.998;6.250;2022-10-03T17:16:35;13.60;99.90
16666;DHT22;8446;50.998;6.250;2022-10-03T17:19:20;13.70;99.90
16666;DHT22;8446;50.998;6.250;2022-10-03T17:21:54;13.60;99.90
16666;DHT22;8446;50.998;6.250;2022-10-03T17:24:36;13.70;99.90
16666;DHT22;8446;50.998;6.250;2022-10-03T17:27:14;13.50;99.90
16666;DHT22;8446;50.998;6.250;2022-10-03T17:29:45;13.50;99.90
16666;DHT22;8446;50.998;6.250;2022-10-03T17:32:20;13.40;99.90
16666;DHT22;8446;50.998;6.250;2022-10-03T17:34:54;13.40;99.90
16666;DHT22;8446;50.998;6.250;2022-10-03T17:37:41;13.40;99.90
16666;DHT22;8446;50.998;6.250;2022-10-03T17:40:19;13.30;99.90
16666;DHT22;8446;50.998;6.250;2022-10-03T17:42:52;13.30;99.90
16666;DHT22;8446;50.998;6.250;2022-10-03T17:45:30;13.30;99.90
16666;DHT22;8446;50.998;6.250;2022-10-03T17:48:07;13.20;99.90
16666;DHT22;8446;50.998;6.250;2022-10-03T17:50:40;13.10;99.90
16666;DHT22;8446;50.998;6.250;2022-10-03T17:53:17;13.00;99.90
16666;DHT22;8446;50.998;6.250;2022-10-03T17:55:47;12.70;99.90
16666;DHT22;8446;50.998;6.250;2022-10-03T17:58:19;12.50;99.90
16666;DHT22;8446;50.998;6.250;2022-10-03T18:00:59;12.40;99.90
16666;DHT22;8446;50.998;6.250;2022-10-03T18:03:29;12.20;99.90
16666;DHT22;8446;50.998;6.250;2022-10-03T18:06:23;12.30;99.90
16666;DHT22;8446;50.998;6.250;2022-10-03T18:08:49;12.30;99.90
16666;DHT22;8446;50.998;6.250;2022-10-03T18:11:20;12.30;99.90
16666;DHT22;8446;50.998;6.250;2022-10-03T18:13:51;12.30;99.90
16666;DHT22;8446;50.998;6.250;2022-10-03T18:16:21;12.20;99.90
16666;DHT22;8446;50.998;6.250;2022-10-03T18:19:22;11.70;99.90
16666;DHT22;8446;50.998;6.250;2022-10-03T18:22:03;11.60;99.90
16666;DHT22;8446;50.998;6.250;2022-10-03T18:24:52;11.70;99.90
16666;DHT22;8446;50.998;6.250;2022-10-03T18:27:46;11.80;99.90
16666;DHT22;8446;50.998;6.250;2022-10-03T18:30:21;11.80;99.90
16666;DHT22;8446;50.998;6.250;2022-10-03T18:32:51;11.80;99.90
16666;DHT22;8446;50.998;6.250;2022-10-03T18:35:21;11.90;99.90
16666;DHT22;8446;50.998;6.250;2022-10-03T18:37:59;11.50;99.90
16666;DHT22;8446;50.998;6.250;2022-10-03T18:40:28;11.50;99.90
16666;DHT22;8446;50.998;6.250;2022-10-03T18:42:56;11.60;99.90
16666;DHT22;8446;50.998;6.250;2022-10-03T18:45:28;11.70;99.90
16666;DHT22;8446;50.998;6.250;2022-10-03T18:48:04;11.80;99.90
16666;DHT22;8446;50.998;6.250;2022-10-03T18:50:44;12.00;99.90
16666;DHT22;8446;50.998;6.250;2022-10-03T18:53:19;12.00;99.90
16666;DHT22;8446;50.998;6.250;2022-10-03T18:55:55;12.10;99.90
16666;DHT22;8446;50.998;6.250;2022-10-03T18:58:27;12.20;99.90
16666;DHT22;8446;50.998;6.250;2022-10-03T19:01:00;12.10;99.90
16666;DHT22;8446;50.998;6.250;2022-10-03T19:03:33;11.90;99.90
16666;DHT22;8446;50.998;6.250;2022-10-03T19:06:04;11.80;99.90
16666;DHT22;8446;50.998;6.250;2022-10-03T19:08:37;11.70;99.90
16666;DHT22;8446;50.998;6.250;2022-10-03T19:11:13;11.50;99.90
16666;DHT22;8446;50.998;6.250;2022-10-03T19:13:44;11.60;99.90
16666;DHT22;8446;50.998;6.250;2022-10-03T19:16:26;11.60;99.90
16666;DHT22;8446;50.998;6.250;2022-10-03T19:19:03;11.40;99.90
16666;DHT22;8446;50.998;6.250;2022-10-03T19:21:36;11.40;99.90
16666;DHT22;8446;50.998;6.250;2022-10-03T19:24:06;11.60;99.90
16666;DHT22;8446;50.998;6.250;2022-10-03T19:26:41;11.60;99.90
16666;DHT22;8446;50.998;6.250;2022-10-03T19:29:11;11.60;99.90
16666;DHT22;8446;50.998;6.250;2022-10-03T19:31:40;11.60;99.90
16666;DHT22;8446;50.998;6.250;2022-10-03T19:34:14;11.50;99.90
16666;DHT22;8446;50.998;6.250;2022-10-03T19:36:43;11.60;99.90
16666;DHT22;8446;50.998;6.250;2022-10-03T19:39:15;11.60;99.90
16666;DHT22;8446;50.998;6.250;2022-10-03T19:41:48;11.40;99.90
16666;DHT22;8446;50.998;6.250;2022-10-03T19:44:19;10.90;99.90
16666;DHT22;8446;50.998;6.250;2022-10-03T19:46:54;11.00;99.90
16666;DHT22;8446;50.998;6.250;2022-10-03T19:49:48;10.90;99.90
16666;DHT22;8446;50.998;6.250;2022-10-03T19:52:23;10.90;99.90
16666;DHT22;8446;50.998;6.250;2022-10-03T19:54:57;10.80;99.90
16666;DHT22;8446;50.998;6.250;2022-10-03T19:57:31;10.70;99.90
16666;DHT22;8446;50.998;6.250;2022-10-03T20:00:03;10.70;99.90